Time;durP1;ratioP1;P1;durP2;ratioP2;P2;SDS_P1;SDS_P2;PMS_P1;PMS_P2;Temp;Humidity;BMP_temperature;BMP_pressure;BME280_temperature;BME280_humidity;BME280_pressure;Samples;Min_cycle;Max_cycle;Signal;HPM_P1;HPM_P2
2020/12/25 00:00:49;;;;;;;5.73;1.00;;;;;;;;;;5113697;28;20027;-56
2020/12/25 00:03:16;;;;;;;3.80;1.00;;;;;;;;;;5113521;28;20489;-55
2020/12/25 00:05:46;;;;;;;4.00;2.03;;;;;;;;;;5113523;28;20085;-56
2020/12/25 00:08:16;;;;;;;3.67;1.33;;;;;;;;;;5113642;28;20046;-55
2020/12/25 00:10:43;;;;;;;6.20;1.60;;;;;;;;;;5113705;28;20028;-55
2020/12/25 00:13:09;;;;;;;5.03;1.37;;;;;;;;;;5113863;28;20028;-56
2020/12/25 00:15:36;;;;;;;3.70;1.67;;;;;;;;;;5113419;28;20027;-56
2020/12/25 00:18:03;;;;;;;16.60;1.60;;;;;;;;;;5113351;28;20056;-55
2020/12/25 00:20:29;;;;;;;2.10;1.10;;;;;;;;;;5113401;28;20020;-55
2020/12/25 00:22:56;;;;;;;2.20;1.00;;;;;;;;;;5113386;28;20042;-55
2020/12/25 00:25:24;;;;;;;4.10;1.10;;;;;;;;;;5113895;27;20082;-56
2020/12/25 00:27:51;;;;;;;2.53;1.40;;;;;;;;;;5113243;28;20489;-55
2020/12/25 00:30:17;;;;;;;1.87;1.00;;;;;;;;;;5113604;28;20038;-55
2020/12/25 00:32:44;;;;;;;3.70;1.50;;;;;;;;;;5113259;28;20035;-55
2020/12/25 00:35:11;;;;;;;3.83;1.00;;;;;;;;;;5113169;28;20032;-55
2020/12/25 00:37:37;;;;;;;3.33;1.07;;;;;;;;;;5113276;28;20103;-55
2020/12/25 00:40:04;;;;;;;3.27;1.07;;;;;;;;;;5113221;28;20020;-55
2020/12/25 00:42:31;;;;;;;2.57;1.27;;;;;;;;;;5113277;28;20387;-55
2020/12/25 00:44:58;;;;;;;2.73;1.30;;;;;;;;;;5113184;28;20020;-55
2020/12/25 00:47:25;;;;;;;1.80;1.00;;;;;;;;;;5113135;28;20176;-55
2020/12/25 00:49:51;;;;;;;2.00;1.10;;;;;;;;;;5113032;28;20057;-54
2020/12/25 00:52:18;;;;;;;2.20;1.30;;;;;;;;;;5113210;28;20028;-54
2020/12/25 00:54:45;;;;;;;4.77;1.50;;;;;;;;;;5113207;28;20103;-55
2020/12/25 00:57:11;;;;;;;2.17;1.30;;;;;;;;;;5112963;28;20035;-55
2020/12/25 00:59:39;;;;;;;2.67;1.40;;;;;;;;;;5115145;28;20027;-55
2020/12/25 01:02:06;;;;;;;2.50;1.20;;;;;;;;;;5116998;28;20032;-55
2020/12/25 01:04:32;;;;;;;1.60;1.00;;;;;;;;;;5117103;28;20086;-55
2020/12/25 01:06:59;;;;;;;2.70;1.30;;;;;;;;;;5117114;28;20034;-55
2020/12/25 01:09:26;;;;;;;3.40;1.60;;;;;;;;;;5116762;28;20059;-54
2020/12/25 01:11:52;;;;;;;8.43;2.30;;;;;;;;;;5116937;28;20024;-55
2020/12/25 01:14:19;;;;;;;11.30;3.20;;;;;;;;;;5116829;28;20389;-55
2020/12/25 01:16:46;;;;;;;12.03;4.40;;;;;;;;;;5116885;28;20161;-54
2020/12/25 01:19:12;;;;;;;15.60;4.63;;;;;;;;;;5117030;28;20027;-54
2020/12/25 01:21:39;;;;;;;18.53;4.40;;;;;;;;;;5116773;28;20026;-55
2020/12/25 01:24:05;;;;;;;26.17;4.73;;;;;;;;;;5117319;27;20028;-55
2020/12/25 01:26:32;;;;;;;15.27;5.07;;;;;;;;;;5116620;28;20019;-55
2020/12/25 01:29:02;;;;;;;10.00;4.10;;;;;;;;;;5116601;28;20038;-55
2020/12/25 01:31:29;;;;;;;10.40;4.10;;;;;;;;;;5116537;28;20453;-55
2020/12/25 01:33:55;;;;;;;6.80;3.33;;;;;;;;;;5116502;28;20206;-55
2020/12/25 01:36:35;;;;;;;9.83;3.03;;;;;;;;;;5116375;28;20028;-54
2020/12/25 01:39:02;;;;;;;10.40;5.03;;;;;;;;;;5116515;28;20032;-55
2020/12/25 01:41:37;;;;;;;6.33;2.77;;;;;;;;;;5097753;28;20040;-55
2020/12/25 01:44:04;;;;;;;10.23;3.33;;;;;;;;;;5115938;28;20035;-54
2020/12/25 01:46:31;;;;;;;13.93;5.17;;;;;;;;;;5116256;28;20036;-55
2020/12/25 01:48:58;;;;;;;8.87;3.83;;;;;;;;;;5116340;28;20526;-55
2020/12/25 01:51:25;;;;;;;9.57;3.40;;;;;;;;;;5116518;28;20050;-55
2020/12/25 01:53:51;;;;;;;7.43;3.40;;;;;;;;;;5116093;28;20028;-55
2020/12/25 01:56:18;;;;;;;12.03;3.53;;;;;;;;;;5115965;28;20015;-55
2020/12/25 01:58:45;;;;;;;7.37;2.97;;;;;;;;;;5115982;28;20039;-55
2020/12/25 02:01:12;;;;;;;11.77;4.23;;;;;;;;;;5116053;28;20027;-55
2020/12/25 02:03:39;;;;;;;12.97;3.10;;;;;;;;;;5115880;28;20039;-55
2020/12/25 02:06:06;;;;;;;12.83;3.03;;;;;;;;;;5115843;28;20023;-55
2020/12/25 02:08:32;;;;;;;29.30;4.67;;;;;;;;;;5115917;28;20016;-55
2020/12/25 02:10:59;;;;;;;10.50;3.83;;;;;;;;;;5114837;28;20034;-55
2020/12/25 02:13:29;;;;;;;5.43;2.73;;;;;;;;;;5115573;28;20050;-55
2020/12/25 02:15:55;;;;;;;11.53;2.83;;;;;;;;;;5115601;28;20027;-55
2020/12/25 02:18:22;;;;;;;8.20;2.90;;;;;;;;;;5115645;28;20031;-54
2020/12/25 02:20:49;;;;;;;11.53;3.07;;;;;;;;;;5115696;28;20031;-55
2020/12/25 02:23:16;;;;;;;8.87;2.93;;;;;;;;;;5115532;28;20032;-55
2020/12/25 02:25:42;;;;;;;8.00;2.63;;;;;;;;;;5116056;27;20058;-55
2020/12/25 02:28:09;;;;;;;8.93;2.20;;;;;;;;;;5115486;28;20031;-55
2020/12/25 02:30:36;;;;;;;12.63;2.27;;;;;;;;;;5115397;28;20469;-55
2020/12/25 02:33:02;;;;;;;3.33;1.60;;;;;;;;;;5115232;28;20027;-55
2020/12/25 02:35:29;;;;;;;6.20;3.07;;;;;;;;;;5115628;28;20020;-55
2020/12/25 02:37:56;;;;;;;8.47;2.93;;;;;;;;;;5115353;28;20015;-55
2020/12/25 02:40:22;;;;;;;6.43;3.00;;;;;;;;;;5115217;28;20022;-55
2020/12/25 02:42:49;;;;;;;8.50;3.10;;;;;;;;;;5115079;28;20119;-55
2020/12/25 02:45:16;;;;;;;7.30;2.57;;;;;;;;;;5115200;28;20026;-55
2020/12/25 02:47:43;;;;;;;5.77;2.47;;;;;;;;;;5114983;28;20032;-55
2020/12/25 02:50:09;;;;;;;10.93;2.30;;;;;;;;;;5115132;28;20028;-54
2020/12/25 02:52:36;;;;;;;6.00;2.90;;;;;;;;;;5115045;28;20374;-55
2020/12/25 02:55:03;;;;;;;12.07;2.30;;;;;;;;;;5113946;28;20032;-54
2020/12/25 02:57:30;;;;;;;5.80;1.17;;;;;;;;;;5115145;28;20385;-55
2020/12/25 02:59:56;;;;;;;4.23;1.23;;;;;;;;;;5114963;28;20047;-55
2020/12/25 03:02:23;;;;;;;2.03;0.87;;;;;;;;;;5114804;28;20032;-55
2020/12/25 03:04:50;;;;;;;1.70;0.70;;;;;;;;;;5114715;28;20103;-55
2020/12/25 03:07:16;;;;;;;5.50;1.47;;;;;;;;;;5114590;28;20024;-55
2020/12/25 03:09:43;;;;;;;2.87;0.70;;;;;;;;;;5114672;28;20058;-55
2020/12/25 03:12:10;;;;;;;1.50;1.00;;;;;;;;;;5114609;28;20470;-55
2020/12/25 03:14:36;;;;;;;3.43;1.00;;;;;;;;;;5114464;28;20016;-55
2020/12/25 03:17:03;;;;;;;2.83;0.80;;;;;;;;;;5114451;28;20034;-55
2020/12/25 03:19:30;;;;;;;4.97;1.00;;;;;;;;;;5114378;28;20019;-55
2020/12/25 03:21:57;;;;;;;2.00;1.00;;;;;;;;;;5113882;28;20024;-55
2020/12/25 03:24:24;;;;;;;5.17;1.33;;;;;;;;;;5114440;27;20028;-54
2020/12/25 03:26:51;;;;;;;4.57;1.60;;;;;;;;;;5114386;28;20028;-54
2020/12/25 03:29:17;;;;;;;1.80;1.10;;;;;;;;;;5114187;28;20027;-54
2020/12/25 03:31:44;;;;;;;3.17;1.43;;;;;;;;;;5114028;28;20461;-54
2020/12/25 03:34:11;;;;;;;4.17;1.70;;;;;;;;;;5114052;28;20510;-54
2020/12/25 03:36:37;;;;;;;2.07;1.13;;;;;;;;;;5114109;28;20031;-54
2020/12/25 03:39:04;;;;;;;4.97;1.20;;;;;;;;;;5114029;28;20031;-54
2020/12/25 03:41:31;;;;;;;2.73;1.13;;;;;;;;;;5113952;28;20024;-54
2020/12/25 03:43:57;;;;;;;6.43;1.27;;;;;;;;;;5113976;28;20085;-54
2020/12/25 03:46:24;;;;;;;3.97;1.50;;;;;;;;;;5113915;28;20432;-54
2020/12/25 03:48:51;;;;;;;6.10;1.70;;;;;;;;;;5113745;28;20057;-54
2020/12/25 03:51:17;;;;;;;5.57;1.80;;;;;;;;;;5113815;28;20023;-54
2020/12/25 03:53:44;;;;;;;3.63;1.70;;;;;;;;;;5113787;28;20034;-54
2020/12/25 03:56:11;;;;;;;3.60;1.60;;;;;;;;;;5113837;28;20077;-54
2020/12/25 03:58:37;;;;;;;6.23;1.93;;;;;;;;;;5113694;28;20027;-54
2020/12/25 04:01:04;;;;;;;5.93;1.70;;;;;;;;;;5114023;28;20470;-54
2020/12/25 04:03:31;;;;;;;2.23;1.50;;;;;;;;;;5113672;28;20035;-54
2020/12/25 04:05:57;;;;;;;3.13;1.53;;;;;;;;;;5113556;28;20016;-54
2020/12/25 04:08:24;;;;;;;2.90;1.63;;;;;;;;;;5113610;28;20080;-54
2020/12/25 04:10:51;;;;;;;2.43;1.20;;;;;;;;;;5113428;28;20026;-54
2020/12/25 04:13:17;;;;;;;4.87;1.50;;;;;;;;;;5113529;28;20469;-54
2020/12/25 04:15:44;;;;;;;2.97;1.20;;;;;;;;;;5113431;28;20046;-54
2020/12/25 04:18:11;;;;;;;2.57;1.00;;;;;;;;;;5113596;28;20089;-54
2020/12/25 04:20:37;;;;;;;4.97;1.20;;;;;;;;;;5113484;28;20026;-54
2020/12/25 04:23:04;;;;;;;5.20;1.20;;;;;;;;;;5113276;28;20027;-54
2020/12/25 04:25:45;;;;;;;3.23;1.37;;;;;;;;;;5113630;27;20071;-54
2020/12/25 04:28:12;;;;;;;1.60;0.77;;;;;;;;;;5113347;28;20031;-54
2020/12/25 04:30:38;;;;;;;1.23;0.90;;;;;;;;;;5113369;28;20016;-54
2020/12/25 04:33:05;;;;;;;5.67;1.17;;;;;;;;;;5113142;28;20028;-54
2020/12/25 04:35:32;;;;;;;2.40;1.20;;;;;;;;;;5112896;28;20128;-54
2020/12/25 04:37:58;;;;;;;1.50;0.90;;;;;;;;;;5113334;28;20028;-54
2020/12/25 04:40:25;;;;;;;0.80;0.60;;;;;;;;;;5113162;28;20111;-54
2020/12/25 04:42:52;;;;;;;1.93;0.80;;;;;;;;;;5113091;28;20504;-54
2020/12/25 04:45:19;;;;;;;5.13;0.80;;;;;;;;;;5113260;28;20028;-54
2020/12/25 04:47:49;;;;;;;3.70;0.60;;;;;;;;;;5113269;28;20028;-54
2020/12/25 04:50:15;;;;;;;1.77;0.77;;;;;;;;;;5113115;28;20027;-54
2020/12/25 04:52:42;;;;;;;2.03;0.90;;;;;;;;;;5113072;28;20462;-54
2020/12/25 04:55:09;;;;;;;1.37;0.60;;;;;;;;;;5113205;28;20069;-54
2020/12/25 04:57:35;;;;;;;2.10;0.30;;;;;;;;;;5113092;28;20039;-54
2020/12/25 05:00:16;;;;;;;3.40;0.33;;;;;;;;;;5113176;28;20305;-54
2020/12/25 05:02:47;;;;;;;1.50;0.40;;;;;;;;;;5113017;28;20683;-53
2020/12/25 05:05:15;;;;;;;0.63;0.47;;;;;;;;;;5112994;28;20248;-54
2020/12/25 05:07:42;;;;;;;1.27;0.37;;;;;;;;;;5094769;28;20753;-53
2020/12/25 05:10:08;;;;;;;3.40;0.50;;;;;;;;;;5113125;28;20533;-54
2020/12/25 05:12:36;;;;;;;1.73;0.50;;;;;;;;;;5112876;28;20331;-53
2020/12/25 05:15:10;;;;;;;2.47;0.77;;;;;;;;;;5113176;28;20259;-54
2020/12/25 05:17:37;;;;;;;2.13;0.70;;;;;;;;;;5112767;28;20319;-54
2020/12/25 05:20:04;;;;;;;3.53;0.70;;;;;;;;;;5112853;28;20325;-54
2020/12/25 05:22:31;;;;;;;2.00;0.80;;;;;;;;;;5112738;28;20319;-53
2020/12/25 05:25:01;;;;;;;0.73;0.20;;;;;;;;;;5113247;27;20781;-54
2020/12/25 05:27:29;;;;;;;3.13;0.50;;;;;;;;;;5113183;28;20245;-53
2020/12/25 05:29:57;;;;;;;0.50;0.40;;;;;;;;;;5112766;28;20302;-53
2020/12/25 05:32:27;;;;;;;1.23;0.80;;;;;;;;;;5112698;28;20248;-53
2020/12/25 05:34:55;;;;;;;0.37;0.27;;;;;;;;;;5112786;28;20278;-53
2020/12/25 05:37:22;;;;;;;0.97;0.43;;;;;;;;;;5112932;28;20259;-53
2020/12/25 05:39:49;;;;;;;1.23;0.50;;;;;;;;;;5112633;28;20623;-53
2020/12/25 05:42:16;;;;;;;2.20;0.67;;;;;;;;;;5112519;28;20372;-53
2020/12/25 05:44:47;;;;;;;1.17;0.63;;;;;;;;;;5112619;28;20272;-53
2020/12/25 05:47:17;;;;;;;2.90;0.30;;;;;;;;;;5115502;28;20625;-53
2020/12/25 05:49:44;;;;;;;2.07;0.73;;;;;;;;;;5116243;28;20347;-53
2020/12/25 05:52:13;;;;;;;1.23;0.40;;;;;;;;;;5116291;28;20445;-53
2020/12/25 05:54:42;;;;;;;1.03;0.53;;;;;;;;;;5116213;28;20288;-53
2020/12/25 05:57:09;;;;;;;1.37;0.50;;;;;;;;;;5116003;28;20252;-53
2020/12/25 05:59:36;;;;;;;1.33;0.60;;;;;;;;;;5115923;28;20263;-53
2020/12/25 06:02:04;;;;;;;2.97;0.53;;;;;;;;;;5115858;28;20757;-53
2020/12/25 06:04:32;;;;;;;1.00;0.50;;;;;;;;;;5115900;28;20254;-54
2020/12/25 06:06:59;;;;;;;1.20;0.30;;;;;;;;;;5115866;28;20251;-53
2020/12/25 06:09:30;;;;;;;2.17;0.67;;;;;;;;;;5115845;28;20331;-53
2020/12/25 06:11:57;;;;;;;1.40;0.43;;;;;;;;;;5115800;28;20613;-53
2020/12/25 06:14:24;;;;;;;0.90;0.40;;;;;;;;;;5115787;28;20324;-53
2020/12/25 06:17:00;;;;;;;3.50;0.70;;;;;;;;;;5115630;28;20251;-53
2020/12/25 06:19:33;;;;;;;1.90;0.50;;;;;;;;;;5115588;28;20251;-53
2020/12/25 06:22:01;;;;;;;0.93;0.20;;;;;;;;;;5115525;28;20244;-53
2020/12/25 06:24:32;;;;;;;3.97;0.40;;;;;;;;;;5115655;28;20264;-53
2020/12/25 06:27:02;;;;;;;3.23;0.63;;;;;;;;;;5115402;28;20292;-53
2020/12/25 06:29:29;;;;;;;0.57;0.30;;;;;;;;;;5115576;28;20253;-53
2020/12/25 06:32:00;;;;;;;1.53;0.40;;;;;;;;;;5115414;28;20339;-53
2020/12/25 06:34:43;;;;;;;2.03;0.40;;;;;;;;;;5115301;28;20741;-53
2020/12/25 06:37:16;;;;;;;0.50;0.17;;;;;;;;;;5115284;28;20283;-53
2020/12/25 06:39:52;;;;;;;1.57;0.40;;;;;;;;;;5115208;28;20357;-53
2020/12/25 06:42:29;;;;;;;1.23;0.37;;;;;;;;;;5115181;28;20274;-53
2020/12/25 06:44:59;;;;;;;3.50;0.50;;;;;;;;;;5115362;28;20252;-53
2020/12/25 06:47:34;;;;;;;0.93;0.20;;;;;;;;;;5115152;28;20244;-53
2020/12/25 06:50:07;;;;;;;1.85;0.73;;;;;;;;;;5114923;28;20278;-53
2020/12/25 06:52:50;;;;;;;0.93;0.57;;;;;;;;;;5115067;28;20080;-53
2020/12/25 06:55:17;;;;;;;1.87;0.60;;;;;;;;;;5114954;28;20260;-53
2020/12/25 06:57:46;;;;;;;1.00;0.50;;;;;;;;;;5114659;28;20248;-53
2020/12/25 07:00:13;;;;;;;1.20;0.70;;;;;;;;;;5114752;28;20714;-53
2020/12/25 07:02:44;;;;;;;1.17;0.60;;;;;;;;;;5114842;28;20336;-53
2020/12/25 07:05:11;;;;;;;3.00;0.90;;;;;;;;;;5114518;28;20283;-53
2020/12/25 07:07:37;;;;;;;1.43;0.83;;;;;;;;;;5114721;28;20252;-53
2020/12/25 07:10:09;;;;;;;4.53;1.00;;;;;;;;;;5114682;28;20361;-53
2020/12/25 07:12:36;;;;;;;3.30;1.40;;;;;;;;;;5114712;28;20725;-53
2020/12/25 07:15:03;;;;;;;3.90;2.10;;;;;;;;;;5114630;28;20248;-53
2020/12/25 07:17:30;;;;;;;3.40;1.60;;;;;;;;;;5114514;28;20259;-53
2020/12/25 07:19:56;;;;;;;3.70;1.40;;;;;;;;;;5114437;28;20313;-53
2020/12/25 07:22:23;;;;;;;4.57;1.23;;;;;;;;;;5114482;28;20310;-53
2020/12/25 07:24:50;;;;;;;2.03;1.10;;;;;;;;;;5114841;27;20313;-53
2020/12/25 07:27:17;;;;;;;2.90;1.10;;;;;;;;;;5114238;28;20255;-53
2020/12/25 07:29:45;;;;;;;2.03;0.70;;;;;;;;;;5114210;28;20678;-53
2020/12/25 07:32:12;;;;;;;1.43;0.77;;;;;;;;;;5114167;28;20284;-53
2020/12/25 07:34:39;;;;;;;2.17;0.87;;;;;;;;;;5114041;28;20583;-53
2020/12/25 07:37:10;;;;;;;1.27;0.70;;;;;;;;;;5114079;28;20326;-53
2020/12/25 07:39:37;;;;;;;1.43;0.80;;;;;;;;;;5114095;28;20248;-53
2020/12/25 07:42:03;;;;;;;1.87;0.70;;;;;;;;;;5113925;28;20331;-53
2020/12/25 07:44:30;;;;;;;2.07;0.60;;;;;;;;;;5114049;28;20652;-53
2020/12/25 07:46:57;;;;;;;3.60;0.70;;;;;;;;;;5113960;28;20248;-53
2020/12/25 07:49:23;;;;;;;1.07;0.30;;;;;;;;;;5113877;28;20280;-53
2020/12/25 07:51:50;;;;;;;0.60;0.27;;;;;;;;;;5113823;28;20248;-53
2020/12/25 07:54:17;;;;;;;1.17;0.40;;;;;;;;;;5113837;28;20301;-53
2020/12/25 07:56:44;;;;;;;0.50;0.40;;;;;;;;;;5113808;28;20244;-53
2020/12/25 07:59:11;;;;;;;0.80;0.50;;;;;;;;;;5113739;28;20252;-53
2020/12/25 08:01:38;;;;;;;1.03;0.40;;;;;;;;;;5113824;28;20248;-53
2020/12/25 08:04:05;;;;;;;1.30;0.40;;;;;;;;;;5113590;28;20366;-53
2020/12/25 08:06:32;;;;;;;1.40;0.60;;;;;;;;;;5113516;28;20263;-53
2020/12/25 08:08:59;;;;;;;0.63;0.20;;;;;;;;;;5113043;28;20338;-53
2020/12/25 08:11:26;;;;;;;1.43;0.50;;;;;;;;;;5113842;28;20244;-53
2020/12/25 08:13:55;;;;;;;3.73;0.50;;;;;;;;;;5113445;28;20245;-53
2020/12/25 08:16:21;;;;;;;0.83;0.50;;;;;;;;;;5113554;28;20266;-53
2020/12/25 08:18:48;;;;;;;0.83;0.30;;;;;;;;;;5113477;28;20271;-53
2020/12/25 08:21:16;;;;;;;0.90;0.40;;;;;;;;;;5113511;28;20256;-53
2020/12/25 08:23:42;;;;;;;1.50;0.60;;;;;;;;;;5113326;28;20375;-53
2020/12/25 08:26:09;;;;;;;0.17;0.17;;;;;;;;;;5113839;27;20284;-53
2020/12/25 08:28:36;;;;;;;0.27;0.10;;;;;;;;;;5113408;28;20707;-53
2020/12/25 08:31:20;;;;;;;3.60;0.50;;;;;;;;;;5113401;28;20252;-53
2020/12/25 08:33:57;;;;;;;2.73;0.30;;;;;;;;;;5113263;28;20256;-53
2020/12/25 08:36:25;;;;;;;0.30;0.20;;;;;;;;;;5113191;28;20335;-53
2020/12/25 08:38:52;;;;;;;0.10;0.10;;;;;;;;;;5113242;28;20255;-53
2020/12/25 08:41:18;;;;;;;1.00;0.30;;;;;;;;;;5113178;28;20252;-53
2020/12/25 08:43:45;;;;;;;0.93;0.40;;;;;;;;;;5113170;28;20291;-53
2020/12/25 08:46:12;;;;;;;0.97;0.20;;;;;;;;;;5113198;28;20344;-53
2020/12/25 08:48:52;;;;;;;0.70;0.40;;;;;;;;;;5113158;28;20259;-53
2020/12/25 08:51:19;;;;;;;1.40;0.27;;;;;;;;;;5113276;28;20320;-53
2020/12/25 08:53:53;;;;;;;0.40;0.30;;;;;;;;;;5113123;28;20431;-53
2020/12/25 08:56:22;;;;;;;2.00;0.40;;;;;;;;;;5113022;28;20248;-53
2020/12/25 08:58:55;;;;;;;1.77;0.93;;;;;;;;;;5113157;28;20322;-53
2020/12/25 09:01:23;;;;;;;0.63;0.30;;;;;;;;;;5113000;28;20247;-53
2020/12/25 09:03:49;;;;;;;2.10;0.30;;;;;;;;;;5112897;28;20757;-53
2020/12/25 09:06:16;;;;;;;0.87;0.40;;;;;;;;;;5112888;28;20252;-53
2020/12/25 09:08:43;;;;;;;2.40;0.20;;;;;;;;;;5113011;28;20270;-53
2020/12/25 09:11:11;;;;;;;0.53;0.20;;;;;;;;;;5113081;28;20727;-53
2020/12/25 09:13:38;;;;;;;1.37;0.20;;;;;;;;;;5112901;28;20252;-53
2020/12/25 09:16:07;;;;;;;0.87;0.33;;;;;;;;;;5112940;28;20284;-53
2020/12/25 09:18:38;;;;;;;0.93;0.47;;;;;;;;;;5112784;28;20263;-53
2020/12/25 09:21:05;;;;;;;0.53;0.20;;;;;;;;;;5115594;28;20247;-53
2020/12/25 09:23:32;;;;;;;1.37;0.23;;;;;;;;;;5116535;28;20306;-53
2020/12/25 09:25:58;;;;;;;0.80;0.30;;;;;;;;;;5117330;27;20340;-53
2020/12/25 09:28:26;;;;;;;0.47;0.17;;;;;;;;;;5116683;28;20320;-53
2020/12/25 09:30:53;;;;;;;0.70;0.27;;;;;;;;;;5116555;28;20252;-53
2020/12/25 09:33:20;;;;;;;0.63;0.27;;;;;;;;;;5116600;28;20264;-53
2020/12/25 09:35:47;;;;;;;0.57;0.50;;;;;;;;;;5116497;28;20259;-53
2020/12/25 09:38:14;;;;;;;3.03;0.80;;;;;;;;;;5116584;28;20264;-53
2020/12/25 09:40:41;;;;;;;1.23;0.40;;;;;;;;;;5116559;28;20252;-53
2020/12/25 09:43:07;;;;;;;1.17;0.57;;;;;;;;;;5116204;28;20288;-53
2020/12/25 09:45:34;;;;;;;0.97;0.47;;;;;;;;;;5116283;28;20252;-53
2020/12/25 09:48:01;;;;;;;1.70;0.70;;;;;;;;;;5116404;28;20264;-53
2020/12/25 09:50:28;;;;;;;0.80;0.50;;;;;;;;;;5116226;28;20252;-53
2020/12/25 09:52:55;;;;;;;0.80;0.50;;;;;;;;;;5116183;28;20264;-53
2020/12/25 09:55:22;;;;;;;1.90;0.83;;;;;;;;;;5116363;28;20647;-53
2020/12/25 09:57:48;;;;;;;1.63;0.50;;;;;;;;;;5116168;28;20341;-53
2020/12/25 10:00:15;;;;;;;1.20;0.67;;;;;;;;;;5116119;28;20260;-53
2020/12/25 10:02:42;;;;;;;1.07;0.50;;;;;;;;;;5115937;28;20295;-53
2020/12/25 10:05:10;;;;;;;1.07;0.57;;;;;;;;;;5115836;28;20248;-53
2020/12/25 10:07:37;;;;;;;1.17;0.70;;;;;;;;;;5116057;28;20317;-53
2020/12/25 10:10:07;;;;;;;2.87;0.60;;;;;;;;;;5115713;28;20256;-53
2020/12/25 10:12:34;;;;;;;1.53;0.50;;;;;;;;;;5115856;28;20252;-53
2020/12/25 10:15:01;;;;;;;1.73;0.70;;;;;;;;;;5115873;28;20252;-53
2020/12/25 10:17:28;;;;;;;3.20;0.60;;;;;;;;;;5115798;28;20276;-53
2020/12/25 10:19:54;;;;;;;1.47;0.60;;;;;;;;;;5115791;28;20335;-53
2020/12/25 10:22:22;;;;;;;1.30;0.80;;;;;;;;;;5115576;28;20279;-53
2020/12/25 10:24:49;;;;;;;0.73;0.47;;;;;;;;;;5115446;28;20291;-53
2020/12/25 10:27:15;;;;;;;2.13;0.70;;;;;;;;;;5116037;27;20271;-53
2020/12/25 10:29:42;;;;;;;1.97;0.60;;;;;;;;;;5115424;28;20792;-53
2020/12/25 10:32:09;;;;;;;1.63;0.80;;;;;;;;;;5114829;28;20248;-53
2020/12/25 10:34:35;;;;;;;2.63;0.73;;;;;;;;;;5115381;28;20309;-53
2020/12/25 10:37:02;;;;;;;2.27;1.50;;;;;;;;;;5115378;28;20244;-53
2020/12/25 10:39:29;;;;;;;2.27;0.90;;;;;;;;;;5115420;28;20264;-53
2020/12/25 10:41:56;;;;;;;3.23;1.10;;;;;;;;;;5115327;28;20261;-53
2020/12/25 10:44:22;;;;;;;1.43;0.80;;;;;;;;;;5115327;28;20295;-53
2020/12/25 10:46:49;;;;;;;1.77;1.03;;;;;;;;;;5115250;28;20260;-53
2020/12/25 10:49:16;;;;;;;6.27;1.00;;;;;;;;;;5115213;28;20260;-53
2020/12/25 10:51:46;;;;;;;3.93;0.80;;;;;;;;;;5115137;28;20335;-53
2020/12/25 10:54:13;;;;;;;1.57;0.77;;;;;;;;;;5115031;28;20244;-53
2020/12/25 10:56:40;;;;;;;1.43;0.83;;;;;;;;;;5114989;28;20299;-53
2020/12/25 10:59:06;;;;;;;2.33;1.10;;;;;;;;;;5114796;28;20301;-53
2020/12/25 11:01:33;;;;;;;2.37;0.87;;;;;;;;;;5114813;28;20253;-53
2020/12/25 11:04:00;;;;;;;1.97;0.77;;;;;;;;;;5114568;28;20280;-53
2020/12/25 11:06:34;;;;;;;2.60;0.93;;;;;;;;;;5114759;28;20309;-53
2020/12/25 11:09:01;;;;;;;1.53;0.83;;;;;;;;;;5115075;28;20252;-53
2020/12/25 11:11:28;;;;;;;3.43;0.90;;;;;;;;;;5114588;28;20248;-53
2020/12/25 11:13:55;;;;;;;2.27;1.03;;;;;;;;;;5114546;28;20717;-53
2020/12/25 11:16:25;;;;;;;2.87;1.17;;;;;;;;;;5114464;28;20284;-53
2020/12/25 11:18:52;;;;;;;2.00;0.90;;;;;;;;;;5114492;28;20571;-53
2020/12/25 11:21:20;;;;;;;2.07;0.97;;;;;;;;;;5114596;28;20263;-53
2020/12/25 11:23:47;;;;;;;1.67;0.83;;;;;;;;;;5114249;28;20684;-53
2020/12/25 11:26:20;;;;;;;2.00;0.90;;;;;;;;;;5114813;27;20306;-53
2020/12/25 11:28:47;;;;;;;1.87;1.00;;;;;;;;;;5114379;28;20251;-53
2020/12/25 11:31:14;;;;;;;3.20;0.90;;;;;;;;;;5114186;28;20258;-53
2020/12/25 11:33:42;;;;;;;1.60;0.90;;;;;;;;;;5114234;28;20286;-53
2020/12/25 11:36:12;;;;;;;4.53;1.33;;;;;;;;;;5114317;28;20256;-52
2020/12/25 11:38:39;;;;;;;2.63;1.00;;;;;;;;;;5114109;28;20640;-53
2020/12/25 11:41:07;;;;;;;1.70;0.97;;;;;;;;;;5114076;28;20752;-53
2020/12/25 11:43:34;;;;;;;3.20;1.20;;;;;;;;;;5113038;28;20279;-53
2020/12/25 11:46:00;;;;;;;1.47;0.80;;;;;;;;;;5114017;28;20714;-53
2020/12/25 11:48:27;;;;;;;2.13;0.80;;;;;;;;;;5113976;28;20302;-53
2020/12/25 11:50:54;;;;;;;3.50;1.13;;;;;;;;;;5113860;28;20248;-53
2020/12/25 11:53:21;;;;;;;2.33;0.90;;;;;;;;;;5113895;28;20309;-53
2020/12/25 11:55:48;;;;;;;4.37;0.93;;;;;;;;;;5113872;28;20264;-53
2020/12/25 11:58:15;;;;;;;2.40;1.10;;;;;;;;;;5113753;28;20787;-53
2020/12/25 12:00:42;;;;;;;1.83;1.07;;;;;;;;;;5113711;28;20760;-53
2020/12/25 12:03:10;;;;;;;2.53;1.10;;;;;;;;;;5113654;28;20841;-53
2020/12/25 12:05:36;;;;;;;3.53;1.27;;;;;;;;;;5113701;28;20244;-53
2020/12/25 12:08:03;;;;;;;3.13;1.10;;;;;;;;;;5113647;28;20252;-53
2020/12/25 12:10:30;;;;;;;2.90;1.10;;;;;;;;;;5113614;28;20251;-52
2020/12/25 12:12:56;;;;;;;1.57;0.90;;;;;;;;;;5113720;28;20256;-53
2020/12/25 12:15:23;;;;;;;3.07;0.97;;;;;;;;;;5113522;28;20279;-53
2020/12/25 12:17:50;;;;;;;1.57;1.03;;;;;;;;;;5113397;28;20284;-53
2020/12/25 12:20:16;;;;;;;1.70;0.77;;;;;;;;;;5113572;28;20740;-53
2020/12/25 12:22:43;;;;;;;2.43;1.10;;;;;;;;;;5113422;28;20307;-53
2020/12/25 12:25:10;;;;;;;2.13;1.10;;;;;;;;;;5113191;28;20335;-53
2020/12/25 12:27:36;;;;;;;2.13;0.80;;;;;;;;;;5112698;27;20792;-53
2020/12/25 12:30:09;;;;;;;1.47;0.90;;;;;;;;;;5113288;28;20256;-53
2020/12/25 12:32:36;;;;;;;2.77;1.10;;;;;;;;;;5113233;28;20705;-53
2020/12/25 12:35:03;;;;;;;1.87;0.90;;;;;;;;;;5113329;28;20256;-53
2020/12/25 12:37:30;;;;;;;1.63;1.00;;;;;;;;;;5113185;28;20260;-53
2020/12/25 12:39:56;;;;;;;3.13;1.27;;;;;;;;;;5113203;28;20756;-53
2020/12/25 12:42:23;;;;;;;2.00;1.00;;;;;;;;;;5113296;28;20364;-53
2020/12/25 12:44:50;;;;;;;1.90;1.03;;;;;;;;;;5113091;28;20814;-53
2020/12/25 12:47:17;;;;;;;2.97;1.17;;;;;;;;;;5113236;28;20240;-53
2020/12/25 12:49:44;;;;;;;1.77;1.00;;;;;;;;;;5113222;28;20313;-53
2020/12/25 12:52:11;;;;;;;2.67;1.27;;;;;;;;;;5113228;28;20244;-53
2020/12/25 12:54:38;;;;;;;1.73;0.93;;;;;;;;;;5113516;28;20264;-53
2020/12/25 12:57:05;;;;;;;2.73;1.20;;;;;;;;;;5117388;28;20276;-53
2020/12/25 12:59:31;;;;;;;2.47;0.90;;;;;;;;;;5117198;28;20339;-53
2020/12/25 13:01:58;;;;;;;1.77;0.87;;;;;;;;;;5117042;28;20248;-53
2020/12/25 13:04:25;;;;;;;2.27;0.93;;;;;;;;;;5117139;28;20283;-53
2020/12/25 13:06:52;;;;;;;1.23;0.90;;;;;;;;;;5117165;28;20260;-53
2020/12/25 13:09:18;;;;;;;1.97;1.00;;;;;;;;;;5117150;28;20606;-53
2020/12/25 13:11:45;;;;;;;1.80;0.90;;;;;;;;;;5116999;28;20338;-53
2020/12/25 13:14:12;;;;;;;1.50;0.90;;;;;;;;;;5116829;28;20305;-53
2020/12/25 13:16:39;;;;;;;2.43;1.20;;;;;;;;;;5116942;28;20252;-53
2020/12/25 13:19:05;;;;;;;6.47;1.17;;;;;;;;;;5116868;28;20255;-53
2020/12/25 13:21:32;;;;;;;1.87;1.20;;;;;;;;;;5116692;28;20303;-53
2020/12/25 13:23:59;;;;;;;2.80;1.20;;;;;;;;;;5116690;28;20363;-53
2020/12/25 13:26:25;;;;;;;1.73;0.77;;;;;;;;;;5117250;27;20278;-53
2020/12/25 13:28:53;;;;;;;1.50;0.80;;;;;;;;;;5116613;28;20248;-53
2020/12/25 13:31:21;;;;;;;1.73;1.00;;;;;;;;;;5116690;28;20240;-53
2020/12/25 13:33:48;;;;;;;2.33;1.40;;;;;;;;;;5116508;28;20256;-53
2020/12/25 13:36:18;;;;;;;3.03;1.33;;;;;;;;;;5116565;28;20252;-53
2020/12/25 13:38:45;;;;;;;1.90;1.03;;;;;;;;;;5116466;28;20252;-53
2020/12/25 13:41:13;;;;;;;1.70;0.90;;;;;;;;;;5116255;28;20252;-53
2020/12/25 13:43:40;;;;;;;1.87;1.00;;;;;;;;;;5116289;28;20303;-53
2020/12/25 13:46:10;;;;;;;1.77;1.03;;;;;;;;;;5116235;28;20277;-53
2020/12/25 13:48:37;;;;;;;2.37;1.17;;;;;;;;;;5116387;28;20252;-53
2020/12/25 13:51:04;;;;;;;2.30;1.20;;;;;;;;;;5116090;28;20339;-53
2020/12/25 13:53:31;;;;;;;2.90;1.17;;;;;;;;;;5116174;28;20655;-53
2020/12/25 13:55:58;;;;;;;2.40;1.10;;;;;;;;;;5116161;28;20726;-53
2020/12/25 13:58:24;;;;;;;3.60;1.40;;;;;;;;;;5116097;28;20240;-53
2020/12/25 14:00:51;;;;;;;2.80;1.37;;;;;;;;;;5116099;28;20472;-53
2020/12/25 14:03:18;;;;;;;5.47;1.67;;;;;;;;;;5115915;28;20359;-53
2020/12/25 14:05:44;;;;;;;4.67;1.77;;;;;;;;;;5115859;28;20244;-53
2020/12/25 14:08:11;;;;;;;4.27;1.43;;;;;;;;;;5115045;28;20260;-53
2020/12/25 14:10:38;;;;;;;4.03;1.80;;;;;;;;;;5116010;28;20272;-53
2020/12/25 14:13:04;;;;;;;3.73;1.97;;;;;;;;;;5115940;28;20251;-53
2020/12/25 14:15:31;;;;;;;3.53;1.80;;;;;;;;;;5115660;28;20259;-53
2020/12/25 14:17:58;;;;;;;7.60;2.20;;;;;;;;;;5115706;28;20252;-53
2020/12/25 14:20:24;;;;;;;3.33;1.70;;;;;;;;;;5115726;28;20325;-53
2020/12/25 14:22:51;;;;;;;3.30;1.67;;;;;;;;;;5115577;28;20283;-53
2020/12/25 14:25:18;;;;;;;2.37;1.37;;;;;;;;;;5115448;28;20298;-53
2020/12/25 14:27:44;;;;;;;6.27;1.30;;;;;;;;;;5116221;27;20303;-53
2020/12/25 14:30:11;;;;;;;3.03;1.30;;;;;;;;;;5115601;28;20256;-53
2020/12/25 14:32:37;;;;;;;5.00;1.50;;;;;;;;;;5115510;28;20774;-53
2020/12/25 14:35:04;;;;;;;4.63;1.70;;;;;;;;;;5115300;28;20317;-53
2020/12/25 14:37:31;;;;;;;2.07;1.00;;;;;;;;;;5115328;28;20253;-53
2020/12/25 14:39:58;;;;;;;3.03;1.10;;;;;;;;;;5115325;28;20251;-53
2020/12/25 14:42:24;;;;;;;3.13;1.30;;;;;;;;;;5115320;28;20301;-53
2020/12/25 14:44:51;;;;;;;3.27;1.30;;;;;;;;;;5115135;28;20321;-53